sensor_id;sensor_type;location;lat;lon;timestamp;temperature;humidity
45283;DHT22;31023;44.994;1.796;2024-02-16T00:00:18;12.20;75.50
45283;DHT22;31023;44.994;1.796;2024-02-16T00:02:44;12.10;76.00
45283;DHT22;31023;44.994;1.796;2024-02-16T00:05:11;12.10;76.10
45283;DHT22;31023;44.994;1.796;2024-02-16T00:07:38;12.00;76.00
45283;DHT22;31023;44.994;1.796;2024-02-16T00:10:05;12.10;75.80
45283;DHT22;31023;44.994;1.796;2024-02-16T00:12:31;12.00;75.90
45283;DHT22;31023;44.994;1.796;2024-02-16T00:15:00;11.90;76.40
45283;DHT22;31023;44.994;1.796;2024-02-16T00:17:26;12.00;76.50
45283;DHT22;31023;44.994;1.796;2024-02-16T00:19:56;11.80;77.40
45283;DHT22;31023;44.994;1.796;2024-02-16T00:22:22;11.80;77.50
45283;DHT22;31023;44.994;1.796;2024-02-16T00:24:48;11.80;77.80
45283;DHT22;31023;44.994;1.796;2024-02-16T00:27:15;12.00;77.20
45283;DHT22;31023;44.994;1.796;2024-02-16T00:29:41;12.10;77.30
45283;DHT22;31023;44.994;1.796;2024-02-16T00:32:07;12.10;77.00
45283;DHT22;31023;44.994;1.796;2024-02-16T00:34:33;12.10;77.20
45283;DHT22;31023;44.994;1.796;2024-02-16T00:37:00;12.00;77.30
45283;DHT22;31023;44.994;1.796;2024-02-16T00:39:26;12.00;77.30
45283;DHT22;31023;44.994;1.796;2024-02-16T00:41:52;12.00;77.30
45283;DHT22;31023;44.994;1.796;2024-02-16T00:44:18;11.90;77.70
45283;DHT22;31023;44.994;1.796;2024-02-16T00:46:44;11.80;77.60
45283;DHT22;31023;44.994;1.796;2024-02-16T00:49:10;11.80;77.80
45283;DHT22;31023;44.994;1.796;2024-02-16T00:51:36;11.70;78.10
45283;DHT22;31023;44.994;1.796;2024-02-16T00:54:03;11.60;78.60
45283;DHT22;31023;44.994;1.796;2024-02-16T00:56:29;11.60;79.20
45283;DHT22;31023;44.994;1.796;2024-02-16T00:58:55;11.50;79.50
45283;DHT22;31023;44.994;1.796;2024-02-16T01:01:21;11.40;80.00
45283;DHT22;31023;44.994;1.796;2024-02-16T01:03:48;11.50;79.80
45283;DHT22;31023;44.994;1.796;2024-02-16T01:06:14;11.70;79.20
45283;DHT22;31023;44.994;1.796;2024-02-16T01:08:40;11.80;78.80
45283;DHT22;31023;44.994;1.796;2024-02-16T01:11:06;11.80;78.40
45283;DHT22;31023;44.994;1.796;2024-02-16T01:13:33;11.70;78.90
45283;DHT22;31023;44.994;1.796;2024-02-16T01:15:59;11.80;78.80
45283;DHT22;31023;44.994;1.796;2024-02-16T01:18:27;11.90;79.10
45283;DHT22;31023;44.994;1.796;2024-02-16T01:20:53;12.00;78.70
45283;DHT22;31023;44.994;1.796;2024-02-16T01:23:20;12.10;77.90
45283;DHT22;31023;44.994;1.796;2024-02-16T01:25:45;12.10;77.90
45283;DHT22;31023;44.994;1.796;2024-02-16T01:28:12;12.20;77.80
45283;DHT22;31023;44.994;1.796;2024-02-16T01:30:38;12.10;78.40
45283;DHT22;31023;44.994;1.796;2024-02-16T01:33:05;12.20;78.20
45283;DHT22;31023;44.994;1.796;2024-02-16T01:35:35;12.20;78.30
45283;DHT22;31023;44.994;1.796;2024-02-16T01:38:01;12.20;77.90
45283;DHT22;31023;44.994;1.796;2024-02-16T01:40:27;12.20;77.80
45283;DHT22;31023;44.994;1.796;2024-02-16T01:42:53;12.20;78.20
45283;DHT22;31023;44.994;1.796;2024-02-16T01:45:19;12.20;78.10
45283;DHT22;31023;44.994;1.796;2024-02-16T01:47:47;12.30;78.40
45283;DHT22;31023;44.994;1.796;2024-02-16T01:50:14;12.30;78.10
45283;DHT22;31023;44.994;1.796;2024-02-16T01:52:40;12.30;78.00
45283;DHT22;31023;44.994;1.796;2024-02-16T01:55:07;12.30;78.10
45283;DHT22;31023;44.994;1.796;2024-02-16T01:57:36;12.30;77.80
45283;DHT22;31023;44.994;1.796;2024-02-16T02:00:04;12.30;77.80
45283;DHT22;31023;44.994;1.796;2024-02-16T02:02:34;12.30;77.50
45283;DHT22;31023;44.994;1.796;2024-02-16T02:04:59;12.30;77.60
45283;DHT22;31023;44.994;1.796;2024-02-16T02:07:26;12.30;77.40
45283;DHT22;31023;44.994;1.796;2024-02-16T02:09:53;12.30;77.30
45283;DHT22;31023;44.994;1.796;2024-02-16T02:12:19;12.30;77.40
45283;DHT22;31023;44.994;1.796;2024-02-16T02:14:44;12.30;77.80
45283;DHT22;31023;44.994;1.796;2024-02-16T02:17:12;12.30;77.60
45283;DHT22;31023;44.994;1.796;2024-02-16T02:19:38;12.30;77.60
45283;DHT22;31023;44.994;1.796;2024-02-16T02:22:04;12.30;77.60
45283;DHT22;31023;44.994;1.796;2024-02-16T02:24:29;12.30;77.70
45283;DHT22;31023;44.994;1.796;2024-02-16T02:26:55;12.30;78.00
45283;DHT22;31023;44.994;1.796;2024-02-16T02:29:22;12.30;78.20
45283;DHT22;31023;44.994;1.796;2024-02-16T02:31:48;12.30;77.90
45283;DHT22;31023;44.994;1.796;2024-02-16T02:34:14;12.30;78.30
45283;DHT22;31023;44.994;1.796;2024-02-16T02:36:40;12.30;78.30
45283;DHT22;31023;44.994;1.796;2024-02-16T02:39:06;12.30;78.60
45283;DHT22;31023;44.994;1.796;2024-02-16T02:41:32;12.30;78.90
45283;DHT22;31023;44.994;1.796;2024-02-16T02:43:58;12.20;79.30
45283;DHT22;31023;44.994;1.796;2024-02-16T02:46:23;12.20;78.90
45283;DHT22;31023;44.994;1.796;2024-02-16T02:48:50;12.20;79.30
45283;DHT22;31023;44.994;1.796;2024-02-16T02:51:17;12.20;79.70
45283;DHT22;31023;44.994;1.796;2024-02-16T02:53:42;12.10;80.80
45283;DHT22;31023;44.994;1.796;2024-02-16T02:56:08;12.10;80.50
45283;DHT22;31023;44.994;1.796;2024-02-16T02:58:34;12.10;80.90
45283;DHT22;31023;44.994;1.796;2024-02-16T03:01:00;12.00;81.60
45283;DHT22;31023;44.994;1.796;2024-02-16T03:03:25;12.00;82.10
45283;DHT22;31023;44.994;1.796;2024-02-16T03:05:51;12.00;82.60
45283;DHT22;31023;44.994;1.796;2024-02-16T03:08:17;11.90;82.70
45283;DHT22;31023;44.994;1.796;2024-02-16T03:10:43;12.00;83.00
45283;DHT22;31023;44.994;1.796;2024-02-16T03:13:09;11.90;83.20
45283;DHT22;31023;44.994;1.796;2024-02-16T03:15:38;11.90;83.70
45283;DHT22;31023;44.994;1.796;2024-02-16T03:18:05;11.80;84.90
45283;DHT22;31023;44.994;1.796;2024-02-16T03:20:34;11.80;84.30
45283;DHT22;31023;44.994;1.796;2024-02-16T03:23:00;11.80;84.70
45283;DHT22;31023;44.994;1.796;2024-02-16T03:25:25;11.70;85.20
45283;DHT22;31023;44.994;1.796;2024-02-16T03:27:51;11.70;85.40
45283;DHT22;31023;44.994;1.796;2024-02-16T03:30:19;11.70;85.90
45283;DHT22;31023;44.994;1.796;2024-02-16T03:32:48;11.70;86.60
45283;DHT22;31023;44.994;1.796;2024-02-16T03:35:15;11.60;86.40
45283;DHT22;31023;44.994;1.796;2024-02-16T03:37:40;11.60;86.60
45283;DHT22;31023;44.994;1.796;2024-02-16T03:40:08;11.60;86.70
45283;DHT22;31023;44.994;1.796;2024-02-16T03:42:35;11.70;86.40
45283;DHT22;31023;44.994;1.796;2024-02-16T03:45:02;11.70;86.50
45283;DHT22;31023;44.994;1.796;2024-02-16T03:47:27;11.80;86.40
45283;DHT22;31023;44.994;1.796;2024-02-16T03:49:53;11.70;86.30
45283;DHT22;31023;44.994;1.796;2024-02-16T03:52:19;11.70;86.60
45283;DHT22;31023;44.994;1.796;2024-02-16T03:54:44;11.70;86.90
45283;DHT22;31023;44.994;1.796;2024-02-16T03:57:14;11.60;87.50
45283;DHT22;31023;44.994;1.796;2024-02-16T03:59:42;11.70;86.90
45283;DHT22;31023;44.994;1.796;2024-02-16T04:02:09;11.70;85.40
45283;DHT22;31023;44.994;1.796;2024-02-16T04:04:35;11.60;85.70
45283;DHT22;31023;44.994;1.796;2024-02-16T04:07:01;11.70;85.80
45283;DHT22;31023;44.994;1.796;2024-02-16T04:09:26;11.70;85.70
45283;DHT22;31023;44.994;1.796;2024-02-16T04:11:52;11.70;85.90
45283;DHT22;31023;44.994;1.796;2024-02-16T04:14:18;11.70;85.90
45283;DHT22;31023;44.994;1.796;2024-02-16T04:16:44;11.70;85.80
45283;DHT22;31023;44.994;1.796;2024-02-16T04:19:10;11.70;86.10
45283;DHT22;31023;44.994;1.796;2024-02-16T04:21:36;11.70;86.30
45283;DHT22;31023;44.994;1.796;2024-02-16T04:24:02;11.60;86.10
45283;DHT22;31023;44.994;1.796;2024-02-16T04:26:28;11.60;86.60
45283;DHT22;31023;44.994;1.796;2024-02-16T04:28:54;11.60;86.70
45283;DHT22;31023;44.994;1.796;2024-02-16T04:31:19;11.60;87.00
45283;DHT22;31023;44.994;1.796;2024-02-16T04:33:45;11.70;87.40
45283;DHT22;31023;44.994;1.796;2024-02-16T04:36:11;11.70;87.90
45283;DHT22;31023;44.994;1.796;2024-02-16T04:38:36;11.60;88.40
45283;DHT22;31023;44.994;1.796;2024-02-16T04:41:04;11.60;89.40
45283;DHT22;31023;44.994;1.796;2024-02-16T04:43:30;11.50;90.20
45283;DHT22;31023;44.994;1.796;2024-02-16T04:45:56;11.40;91.20
45283;DHT22;31023;44.994;1.796;2024-02-16T04:48:21;11.40;91.40
45283;DHT22;31023;44.994;1.796;2024-02-16T04:50:47;11.40;92.10
45283;DHT22;31023;44.994;1.796;2024-02-16T04:53:13;11.40;92.70
45283;DHT22;31023;44.994;1.796;2024-02-16T04:55:38;11.40;92.90
45283;DHT22;31023;44.994;1.796;2024-02-16T04:58:04;11.20;94.20
45283;DHT22;31023;44.994;1.796;2024-02-16T05:00:36;11.10;95.50
45283;DHT22;31023;44.994;1.796;2024-02-16T05:03:02;11.20;96.00
45283;DHT22;31023;44.994;1.796;2024-02-16T05:05:28;11.20;96.60
45283;DHT22;31023;44.994;1.796;2024-02-16T05:07:54;11.10;97.50
45283;DHT22;31023;44.994;1.796;2024-02-16T05:10:19;11.00;98.40
45283;DHT22;31023;44.994;1.796;2024-02-16T05:12:45;11.00;99.20
45283;DHT22;31023;44.994;1.796;2024-02-16T05:15:11;11.00;99.50
45283;DHT22;31023;44.994;1.796;2024-02-16T05:17:41;11.10;99.80
45283;DHT22;31023;44.994;1.796;2024-02-16T05:20:13;11.00;99.90
45283;DHT22;31023;44.994;1.796;2024-02-16T05:22:45;10.90;99.90
45283;DHT22;31023;44.994;1.796;2024-02-16T05:25:18;11.00;99.90
45283;DHT22;31023;44.994;1.796;2024-02-16T05:27:44;11.00;99.90
45283;DHT22;31023;44.994;1.796;2024-02-16T05:30:11;10.90;99.90
45283;DHT22;31023;44.994;1.796;2024-02-16T05:32:38;10.90;99.90
45283;DHT22;31023;44.994;1.796;2024-02-16T05:35:05;11.00;99.90
45283;DHT22;31023;44.994;1.796;2024-02-16T05:37:41;10.90;99.90
45283;DHT22;31023;44.994;1.796;2024-02-16T05:40:10;10.90;99.90
45283;DHT22;31023;44.994;1.796;2024-02-16T05:42:47;10.70;99.90
45283;DHT22;31023;44.994;1.796;2024-02-16T05:45:14;10.70;99.90
45283;DHT22;31023;44.994;1.796;2024-02-16T05:47:40;10.50;99.90
45283;DHT22;31023;44.994;1.796;2024-02-16T05:50:06;10.20;99.90
45283;DHT22;31023;44.994;1.796;2024-02-16T05:52:32;10.20;99.90
45283;DHT22;31023;44.994;1.796;2024-02-16T05:54:58;10.30;99.90
45283;DHT22;31023;44.994;1.796;2024-02-16T05:57:24;10.20;99.90
45283;DHT22;31023;44.994;1.796;2024-02-16T05:59:50;10.10;99.90
45283;DHT22;31023;44.994;1.796;2024-02-16T06:02:17;10.10;99.90
45283;DHT22;31023;44.994;1.796;2024-02-16T06:04:43;10.00;99.90
45283;DHT22;31023;44.994;1.796;2024-02-16T06:07:09;9.80;99.90
45283;DHT22;31023;44.994;1.796;2024-02-16T06:09:35;9.90;99.90
45283;DHT22;31023;44.994;1.796;2024-02-16T06:12:01;9.80;99.90
45283;DHT22;31023;44.994;1.796;2024-02-16T06:14:29;9.80;99.90
45283;DHT22;31023;44.994;1.796;2024-02-16T06:16:55;9.80;99.90
45283;DHT22;31023;44.994;1.796;2024-02-16T06:19:21;9.60;99.90
45283;DHT22;31023;44.994;1.796;2024-02-16T06:21:47;9.80;99.90
45283;DHT22;31023;44.994;1.796;2024-02-16T06:24:12;9.90;99.90
45283;DHT22;31023;44.994;1.796;2024-02-16T06:26:38;9.80;99.90
45283;DHT22;31023;44.994;1.796;2024-02-16T06:29:04;9.80;99.90
45283;DHT22;31023;44.994;1.796;2024-02-16T06:31:29;9.90;99.90
45283;DHT22;31023;44.994;1.796;2024-02-16T06:33:55;9.80;99.90
45283;DHT22;31023;44.994;1.796;2024-02-16T06:36:22;9.50;99.90
45283;DHT22;31023;44.994;1.796;2024-02-16T06:38:47;9.90;99.90
45283;DHT22;31023;44.994;1.796;2024-02-16T06:41:13;9.70;99.90
45283;DHT22;31023;44.994;1.796;2024-02-16T06:43:39;9.70;99.90
45283;DHT22;31023;44.994;1.796;2024-02-16T06:46:05;9.70;99.90
45283;DHT22;31023;44.994;1.796;2024-02-16T06:48:30;9.70;99.90
45283;DHT22;31023;44.994;1.796;2024-02-16T06:50:56;9.70;99.90
45283;DHT22;31023;44.994;1.796;2024-02-16T06:53:22;9.50;99.90
45283;DHT22;31023;44.994;1.796;2024-02-16T06:55:48;9.50;99.90
45283;DHT22;31023;44.994;1.796;2024-02-16T06:58:14;9.50;99.90
45283;DHT22;31023;44.994;1.796;2024-02-16T07:00:39;9.60;99.90
45283;DHT22;31023;44.994;1.796;2024-02-16T07:03:07;9.60;99.90
45283;DHT22;31023;44.994;1.796;2024-02-16T07:05:34;9.50;99.90
45283;DHT22;31023;44.994;1.796;2024-02-16T07:08:00;9.60;99.90
45283;DHT22;31023;44.994;1.796;2024-02-16T07:10:25;9.60;99.90
45283;DHT22;31023;44.994;1.796;2024-02-16T07:12:51;9.70;99.90
45283;DHT22;31023;44.994;1.796;2024-02-16T07:15:17;9.80;99.90
45283;DHT22;31023;44.994;1.796;2024-02-16T07:17:42;9.70;99.90
45283;DHT22;31023;44.994;1.796;2024-02-16T07:20:09;9.70;99.90
45283;DHT22;31023;44.994;1.796;2024-02-16T07:22:34;9.80;99.90
45283;DHT22;31023;44.994;1.796;2024-02-16T07:25:00;9.60;99.90
45283;DHT22;31023;44.994;1.796;2024-02-16T07:27:26;9.70;99.90
45283;DHT22;31023;44.994;1.796;2024-02-16T07:29:52;9.60;99.90
45283;DHT22;31023;44.994;1.796;2024-02-16T07:32:18;9.40;99.90
45283;DHT22;31023;44.994;1.796;2024-02-16T07:34:46;9.50;99.90
45283;DHT22;31023;44.994;1.796;2024-02-16T07:37:15;9.60;99.90
45283;DHT22;31023;44.994;1.796;2024-02-16T07:39:43;9.60;99.90
45283;DHT22;31023;44.994;1.796;2024-02-16T07:42:09;9.80;99.90
45283;DHT22;31023;44.994;1.796;2024-02-16T07:44:36;9.90;99.90
45283;DHT22;31023;44.994;1.796;2024-02-16T07:47:02;9.70;99.90
45283;DHT22;31023;44.994;1.796;2024-02-16T07:49:28;9.60;99.90
45283;DHT22;31023;44.994;1.796;2024-02-16T07:51:54;9.50;99.90
45283;DHT22;31023;44.994;1.796;2024-02-16T07:54:20;9.60;99.90
45283;DHT22;31023;44.994;1.796;2024-02-16T07:56:46;9.80;99.90
45283;DHT22;31023;44.994;1.796;2024-02-16T07:59:12;9.70;99.90
45283;DHT22;31023;44.994;1.796;2024-02-16T08:01:37;9.80;99.90
45283;DHT22;31023;44.994;1.796;2024-02-16T08:04:04;9.70;99.90
45283;DHT22;31023;44.994;1.796;2024-02-16T08:06:30;9.70;99.90
45283;DHT22;31023;44.994;1.796;2024-02-16T08:08:55;9.80;99.90
45283;DHT22;31023;44.994;1.796;2024-02-16T08:11:22;9.80;99.90
45283;DHT22;31023;44.994;1.796;2024-02-16T08:13:48;9.70;99.90
45283;DHT22;31023;44.994;1.796;2024-02-16T08:16:13;9.80;99.90
45283;DHT22;31023;44.994;1.796;2024-02-16T08:18:39;9.90;99.90
45283;DHT22;31023;44.994;1.796;2024-02-16T08:21:05;9.80;99.90
45283;DHT22;31023;44.994;1.796;2024-02-16T08:23:30;9.90;99.90
45283;DHT22;31023;44.994;1.796;2024-02-16T08:25:56;10.00;99.90
45283;DHT22;31023;44.994;1.796;2024-02-16T08:28:23;10.00;99.90
45283;DHT22;31023;44.994;1.796;2024-02-16T08:30:49;10.20;99.90
45283;DHT22;31023;44.994;1.796;2024-02-16T08:33:15;9.90;99.90
45283;DHT22;31023;44.994;1.796;2024-02-16T08:35:41;10.10;99.90
45283;DHT22;31023;44.994;1.796;2024-02-16T08:38:06;10.00;99.90
45283;DHT22;31023;44.994;1.796;2024-02-16T08:40:37;10.00;99.90
45283;DHT22;31023;44.994;1.796;2024-02-16T08:43:04;10.00;99.90
45283;DHT22;31023;44.994;1.796;2024-02-16T08:45:30;10.10;99.90
45283;DHT22;31023;44.994;1.796;2024-02-16T08:47:56;10.10;99.90
45283;DHT22;31023;44.994;1.796;2024-02-16T08:50:23;10.30;99.90
45283;DHT22;31023;44.994;1.796;2024-02-16T08:52:49;10.40;99.90
45283;DHT22;31023;44.994;1.796;2024-02-16T08:55:15;10.30;99.90
45283;DHT22;31023;44.994;1.796;2024-02-16T08:57:41;10.10;99.90
45283;DHT22;31023;44.994;1.796;2024-02-16T09:00:08;10.20;99.90
45283;DHT22;31023;44.994;1.796;2024-02-16T09:02:34;10.10;99.90
45283;DHT22;31023;44.994;1.796;2024-02-16T09:05:00;10.30;99.90
45283;DHT22;31023;44.994;1.796;2024-02-16T09:07:25;10.30;99.90
45283;DHT22;31023;44.994;1.796;2024-02-16T09:09:52;10.20;99.90
45283;DHT22;31023;44.994;1.796;2024-02-16T09:12:18;10.30;99.90
45283;DHT22;31023;44.994;1.796;2024-02-16T09:14:44;10.30;99.90
45283;DHT22;31023;44.994;1.796;2024-02-16T09:17:09;10.20;99.90
45283;DHT22;31023;44.994;1.796;2024-02-16T09:19:35;10.20;99.90
45283;DHT22;31023;44.994;1.796;2024-02-16T09:22:01;10.40;99.90
45283;DHT22;31023;44.994;1.796;2024-02-16T09:24:32;10.40;99.90
45283;DHT22;31023;44.994;1.796;2024-02-16T09:26:58;10.40;99.90
45283;DHT22;31023;44.994;1.796;2024-02-16T09:29:29;10.30;99.90
45283;DHT22;31023;44.994;1.796;2024-02-16T09:31:54;10.20;99.90
45283;DHT22;31023;44.994;1.796;2024-02-16T09:34:20;10.20;99.90
45283;DHT22;31023;44.994;1.796;2024-02-16T09:36:46;10.30;99.90
45283;DHT22;31023;44.994;1.796;2024-02-16T09:39:11;10.40;99.90
45283;DHT22;31023;44.994;1.796;2024-02-16T09:41:42;10.50;99.90
45283;DHT22;31023;44.994;1.796;2024-02-16T09:44:08;10.50;99.90
45283;DHT22;31023;44.994;1.796;2024-02-16T09:46:35;10.40;99.90
45283;DHT22;31023;44.994;1.796;2024-02-16T09:49:02;10.30;99.90
45283;DHT22;31023;44.994;1.796;2024-02-16T09:51:31;10.50;99.90
45283;DHT22;31023;44.994;1.796;2024-02-16T09:54:01;10.60;99.90
45283;DHT22;31023;44.994;1.796;2024-02-16T09:56:28;10.50;99.90
45283;DHT22;31023;44.994;1.796;2024-02-16T09:58:54;10.50;99.90
45283;DHT22;31023;44.994;1.796;2024-02-16T10:01:23;10.50;99.90
45283;DHT22;31023;44.994;1.796;2024-02-16T10:03:49;10.50;99.90
45283;DHT22;31023;44.994;1.796;2024-02-16T10:06:16;10.40;99.90
45283;DHT22;31023;44.994;1.796;2024-02-16T10:11:15;10.70;99.90
45283;DHT22;31023;44.994;1.796;2024-02-16T10:13:41;10.50;99.90
45283;DHT22;31023;44.994;1.796;2024-02-16T10:16:08;10.50;99.90
45283;DHT22;31023;44.994;1.796;2024-02-16T10:18:38;10.50;99.90
45283;DHT22;31023;44.994;1.796;2024-02-16T10:21:04;10.40;99.90
45283;DHT22;31023;44.994;1.796;2024-02-16T10:23:30;10.60;99.90
45283;DHT22;31023;44.994;1.796;2024-02-16T10:25:57;10.60;99.90
45283;DHT22;31023;44.994;1.796;2024-02-16T10:28:24;10.60;99.90
45283;DHT22;31023;44.994;1.796;2024-02-16T10:30:58;10.80;99.90
45283;DHT22;31023;44.994;1.796;2024-02-16T10:33:27;10.90;99.90
45283;DHT22;31023;44.994;1.796;2024-02-16T10:35:55;11.00;99.90
45283;DHT22;31023;44.994;1.796;2024-02-16T10:38:22;10.90;99.90
45283;DHT22;31023;44.994;1.796;2024-02-16T10:40:50;10.90;99.90
45283;DHT22;31023;44.994;1.796;2024-02-16T10:43:18;11.00;99.90
45283;DHT22;31023;44.994;1.796;2024-02-16T10:45:43;11.10;99.90
45283;DHT22;31023;44.994;1.796;2024-02-16T10:48:12;11.20;99.90
45283;DHT22;31023;44.994;1.796;2024-02-16T10:50:41;11.40;99.90
45283;DHT22;31023;44.994;1.796;2024-02-16T10:53:25;11.50;99.90
45283;DHT22;31023;44.994;1.796;2024-02-16T10:55:52;11.60;99.90
45283;DHT22;31023;44.994;1.796;2024-02-16T10:58:18;11.70;99.90
45283;DHT22;31023;44.994;1.796;2024-02-16T11:00:55;11.80;99.90
45283;DHT22;31023;44.994;1.796;2024-02-16T11:03:25;11.80;99.90
45283;DHT22;31023;44.994;1.796;2024-02-16T11:05:51;11.70;99.90
45283;DHT22;31023;44.994;1.796;2024-02-16T11:08:19;11.60;99.90
45283;DHT22;31023;44.994;1.796;2024-02-16T11:11:22;11.60;99.90
45283;DHT22;31023;44.994;1.796;2024-02-16T11:13:48;11.50;99.90
45283;DHT22;31023;44.994;1.796;2024-02-16T11:16:13;11.80;99.90
45283;DHT22;31023;44.994;1.796;2024-02-16T11:18:42;11.80;99.90
45283;DHT22;31023;44.994;1.796;2024-02-16T11:21:15;11.80;99.90
45283;DHT22;31023;44.994;1.796;2024-02-16T11:23:41;11.80;99.90
45283;DHT22;31023;44.994;1.796;2024-02-16T11:26:12;12.00;99.90
45283;DHT22;31023;44.994;1.796;2024-02-16T11:28:40;12.10;99.90
45283;DHT22;31023;44.994;1.796;2024-02-16T11:31:07;12.10;99.90
45283;DHT22;31023;44.994;1.796;2024-02-16T11:33:33;12.30;99.90
45283;DHT22;31023;44.994;1.796;2024-02-16T11:36:03;12.40;99.90
45283;DHT22;31023;44.994;1.796;2024-02-16T11:38:33;12.40;99.90
45283;DHT22;31023;44.994;1.796;2024-02-16T11:41:03;12.40;99.90
45283;DHT22;31023;44.994;1.796;2024-02-16T11:43:30;12.20;99.90
45283;DHT22;31023;44.994;1.796;2024-02-16T11:45:56;12.00;99.90
45283;DHT22;31023;44.994;1.796;2024-02-16T11:48:23;12.00;99.90
45283;DHT22;31023;44.994;1.796;2024-02-16T11:50:58;11.90;99.90
45283;DHT22;31023;44.994;1.796;2024-02-16T11:53:23;11.70;99.90
45283;DHT22;31023;44.994;1.796;2024-02-16T11:55:49;11.60;99.90
45283;DHT22;31023;44.994;1.796;2024-02-16T11:58:19;11.70;99.90
45283;DHT22;31023;44.994;1.796;2024-02-16T12:00:46;11.80;99.90
45283;DHT22;31023;44.994;1.796;2024-02-16T12:03:24;12.00;99.90
45283;DHT22;31023;44.994;1.796;2024-02-16T12:05:54;12.20;99.90
45283;DHT22;31023;44.994;1.796;2024-02-16T12:08:20;12.20;99.90
45283;DHT22;31023;44.994;1.796;2024-02-16T12:10:47;12.30;99.90
45283;DHT22;31023;44.994;1.796;2024-02-16T12:13:17;12.30;99.90
45283;DHT22;31023;44.994;1.796;2024-02-16T12:15:48;12.50;99.90
45283;DHT22;31023;44.994;1.796;2024-02-16T12:18:24;12.60;99.90
45283;DHT22;31023;44.994;1.796;2024-02-16T12:21:08;12.50;99.90
45283;DHT22;31023;44.994;1.796;2024-02-16T12:23:36;12.50;99.90
45283;DHT22;31023;44.994;1.796;2024-02-16T12:26:02;12.60;99.90
45283;DHT22;31023;44.994;1.796;2024-02-16T12:28:30;12.90;99.90
45283;DHT22;31023;44.994;1.796;2024-02-16T12:30:59;13.30;99.90
45283;DHT22;31023;44.994;1.796;2024-02-16T12:33:25;13.50;99.90
45283;DHT22;31023;44.994;1.796;2024-02-16T12:35:51;13.30;99.90
45283;DHT22;31023;44.994;1.796;2024-02-16T12:38:17;13.30;99.90
45283;DHT22;31023;44.994;1.796;2024-02-16T12:40:45;13.20;99.90
45283;DHT22;31023;44.994;1.796;2024-02-16T12:43:12;13.30;99.90
45283;DHT22;31023;44.994;1.796;2024-02-16T12:45:39;13.60;99.90
45283;DHT22;31023;44.994;1.796;2024-02-16T12:48:05;13.70;99.90
45283;DHT22;31023;44.994;1.796;2024-02-16T12:50:31;13.60;99.90
45283;DHT22;31023;44.994;1.796;2024-02-16T12:52:57;13.30;99.90
45283;DHT22;31023;44.994;1.796;2024-02-16T12:55:24;13.20;99.90
45283;DHT22;31023;44.994;1.796;2024-02-16T12:57:50;13.40;99.90
45283;DHT22;31023;44.994;1.796;2024-02-16T13:00:16;13.60;99.90
45283;DHT22;31023;44.994;1.796;2024-02-16T13:02:42;13.30;99.90
45283;DHT22;31023;44.994;1.796;2024-02-16T13:05:07;13.10;99.90
45283;DHT22;31023;44.994;1.796;2024-02-16T13:07:34;13.10;99.90
45283;DHT22;31023;44.994;1.796;2024-02-16T13:09:59;13.10;99.90
45283;DHT22;31023;44.994;1.796;2024-02-16T13:12:25;13.00;99.90
45283;DHT22;31023;44.994;1.796;2024-02-16T13:14:51;13.20;99.90
45283;DHT22;31023;44.994;1.796;2024-02-16T13:17:16;13.20;99.90
45283;DHT22;31023;44.994;1.796;2024-02-16T13:19:42;13.10;99.90
45283;DHT22;31023;44.994;1.796;2024-02-16T13:22:08;13.30;99.90
45283;DHT22;31023;44.994;1.796;2024-02-16T13:24:34;13.30;99.90
45283;DHT22;31023;44.994;1.796;2024-02-16T13:27:00;13.20;99.90
45283;DHT22;31023;44.994;1.796;2024-02-16T13:29:27;12.90;99.90
45283;DHT22;31023;44.994;1.796;2024-02-16T13:31:53;12.80;99.90
45283;DHT22;31023;44.994;1.796;2024-02-16T13:34:18;12.40;99.90
45283;DHT22;31023;44.994;1.796;2024-02-16T13:36:44;12.50;99.90
45283;DHT22;31023;44.994;1.796;2024-02-16T13:39:10;12.50;99.90
45283;DHT22;31023;44.994;1.796;2024-02-16T13:41:35;12.60;99.90
45283;DHT22;31023;44.994;1.796;2024-02-16T13:44:01;12.80;99.90
45283;DHT22;31023;44.994;1.796;2024-02-16T13:46:28;12.90;99.90
45283;DHT22;31023;44.994;1.796;2024-02-16T13:48:53;12.80;99.90
45283;DHT22;31023;44.994;1.796;2024-02-16T13:51:20;12.50;99.90
45283;DHT22;31023;44.994;1.796;2024-02-16T13:53:45;12.60;99.90
45283;DHT22;31023;44.994;1.796;2024-02-16T13:56:11;12.60;99.90
45283;DHT22;31023;44.994;1.796;2024-02-16T13:58:37;12.50;99.90
45283;DHT22;31023;44.994;1.796;2024-02-16T14:01:04;12.70;99.90
45283;DHT22;31023;44.994;1.796;2024-02-16T14:03:30;12.70;99.90
45283;DHT22;31023;44.994;1.796;2024-02-16T14:05:56;12.50;99.90
45283;DHT22;31023;44.994;1.796;2024-02-16T14:08:22;12.50;99.90
45283;DHT22;31023;44.994;1.796;2024-02-16T14:10:48;12.40;99.90
45283;DHT22;31023;44.994;1.796;2024-02-16T14:13:14;12.30;99.90
45283;DHT22;31023;44.994;1.796;2024-02-16T14:15:40;12.20;99.90
45283;DHT22;31023;44.994;1.796;2024-02-16T14:18:06;12.00;99.90
45283;DHT22;31023;44.994;1.796;2024-02-16T14:20:32;12.10;99.90
45283;DHT22;31023;44.994;1.796;2024-02-16T14:22:58;12.00;99.90
45283;DHT22;31023;44.994;1.796;2024-02-16T14:25:24;12.20;99.90
45283;DHT22;31023;44.994;1.796;2024-02-16T14:27:51;12.30;99.90
45283;DHT22;31023;44.994;1.796;2024-02-16T14:30:16;12.30;99.90
45283;DHT22;31023;44.994;1.796;2024-02-16T14:32:42;12.40;99.90
45283;DHT22;31023;44.994;1.796;2024-02-16T14:35:08;12.60;99.90
45283;DHT22;31023;44.994;1.796;2024-02-16T14:37:35;12.60;99.90
45283;DHT22;31023;44.994;1.796;2024-02-16T14:40:01;12.60;99.90
45283;DHT22;31023;44.994;1.796;2024-02-16T14:42:28;12.60;99.90
45283;DHT22;31023;44.994;1.796;2024-02-16T14:44:54;12.50;99.90
45283;DHT22;31023;44.994;1.796;2024-02-16T14:47:20;12.60;99.90
45283;DHT22;31023;44.994;1.796;2024-02-16T14:49:47;12.80;99.90
45283;DHT22;31023;44.994;1.796;2024-02-16T14:52:14;12.60;99.90
45283;DHT22;31023;44.994;1.796;2024-02-16T14:54:39;12.70;99.90
45283;DHT22;31023;44.994;1.796;2024-02-16T14:57:05;12.80;99.90
45283;DHT22;31023;44.994;1.796;2024-02-16T14:59:31;12.50;99.90
45283;DHT22;31023;44.994;1.796;2024-02-16T15:01:56;12.30;99.90
45283;DHT22;31023;44.994;1.796;2024-02-16T15:04:23;12.40;99.90
45283;DHT22;31023;44.994;1.796;2024-02-16T15:06:49;12.50;99.90
45283;DHT22;31023;44.994;1.796;2024-02-16T15:09:14;12.60;99.90
45283;DHT22;31023;44.994;1.796;2024-02-16T15:11:40;12.50;99.90
45283;DHT22;31023;44.994;1.796;2024-02-16T15:14:06;12.40;99.90
45283;DHT22;31023;44.994;1.796;2024-02-16T15:16:32;12.60;99.90
45283;DHT22;31023;44.994;1.796;2024-02-16T15:18:57;12.60;99.90
45283;DHT22;31023;44.994;1.796;2024-02-16T15:21:26;12.60;99.90
45283;DHT22;31023;44.994;1.796;2024-02-16T15:23:52;12.70;99.90
45283;DHT22;31023;44.994;1.796;2024-02-16T15:26:18;12.50;99.90
45283;DHT22;31023;44.994;1.796;2024-02-16T15:28:44;12.50;99.90
45283;DHT22;31023;44.994;1.796;2024-02-16T15:31:10;12.60;99.90